createdAt,value
2018-06-10T00:00:06.051Z,19.42
2018-06-10T00:01:06.199Z,19.50
2018-06-10T00:02:06.353Z,19.57
2018-06-10T00:03:06.512Z,19.42
2018-06-10T00:04:06.666Z,19.46
2018-06-10T00:05:06.822Z,19.40
2018-06-10T00:06:06.977Z,19.40
2018-06-10T00:07:07.134Z,19.38
2018-06-10T00:08:07.288Z,19.38
2018-06-10T00:09:07.449Z,19.42
2018-06-10T00:10:07.606Z,19.42
2018-06-10T00:11:07.758Z,19.55
2018-06-10T00:12:07.913Z,19.47
2018-06-10T00:13:08.071Z,19.47
2018-06-10T00:14:08.229Z,19.43
2018-06-10T00:15:08.383Z,19.39
2018-06-10T00:16:08.538Z,19.39
2018-06-10T00:17:08.698Z,19.47
2018-06-10T00:18:08.851Z,19.42
2018-06-10T00:19:09.019Z,19.51
2018-06-10T00:20:09.160Z,19.47
2018-06-10T00:21:09.328Z,19.51
2018-06-10T00:22:09.483Z,19.58
2018-06-10T00:23:09.642Z,19.60
2018-06-10T00:24:09.797Z,19.50
2018-06-10T00:25:09.952Z,19.43
2018-06-10T00:26:10.109Z,19.48
2018-06-10T00:27:10.266Z,19.46
2018-06-10T00:28:10.421Z,19.38
2018-06-10T00:29:10.581Z,19.46
2018-06-10T00:30:10.736Z,19.43
2018-06-10T00:31:10.892Z,19.39
2018-06-10T00:32:11.050Z,19.42
2018-06-10T00:33:11.204Z,19.32
2018-06-10T00:34:11.360Z,19.35
2018-06-10T00:35:11.514Z,19.28
2018-06-10T00:36:11.671Z,19.23
2018-06-10T00:37:11.828Z,19.25
2018-06-10T00:38:11.983Z,19.28
2018-06-10T00:39:12.138Z,19.20
2018-06-10T00:40:12.296Z,19.24
2018-06-10T00:41:12.451Z,19.23
2018-06-10T00:42:12.607Z,19.24
2018-06-10T00:43:12.761Z,19.35
2018-06-10T00:44:12.918Z,19.18
2018-06-10T00:45:13.075Z,19.29
2018-06-10T00:46:13.233Z,19.29
2018-06-10T00:47:13.388Z,19.21
2018-06-10T00:48:13.544Z,19.21
2018-06-10T00:49:13.699Z,19.25
2018-06-10T00:50:13.853Z,19.25
2018-06-10T00:51:14.009Z,19.25
2018-06-10T00:52:14.167Z,19.29
2018-06-10T00:53:14.323Z,19.33
2018-06-10T00:54:14.479Z,19.31
2018-06-10T00:55:14.634Z,19.21
2018-06-10T00:56:14.788Z,19.18
2018-06-10T00:57:14.944Z,19.06
2018-06-10T00:58:15.100Z,19.01
2018-06-10T00:59:15.255Z,18.94
2018-06-10T01:00:15.412Z,18.84
2018-06-10T01:01:15.566Z,18.83
2018-06-10T01:02:15.730Z,18.91
2018-06-10T01:03:15.879Z,18.92
2018-06-10T01:04:16.039Z,18.91
2018-06-10T01:05:16.194Z,19.01
2018-06-10T01:06:16.341Z,19.01
2018-06-10T01:07:16.496Z,18.97
2018-06-10T01:08:16.652Z,19.01
2018-06-10T01:09:16.805Z,18.94
2018-06-10T01:10:16.962Z,18.84
2018-06-10T01:11:17.116Z,18.83
2018-06-10T01:12:17.271Z,18.76
2018-06-10T01:13:17.429Z,18.74
2018-06-10T01:14:17.585Z,18.72
2018-06-10T01:15:17.739Z,18.80
2018-06-10T01:16:17.899Z,18.72
2018-06-10T01:17:18.054Z,18.77
2018-06-10T01:18:18.210Z,18.84
2018-06-10T01:19:18.364Z,18.73
2018-06-10T01:20:18.521Z,18.91
2018-06-10T01:21:18.675Z,18.86
2018-06-10T01:22:18.831Z,18.87
2018-06-10T01:23:18.987Z,18.91
2018-06-10T01:24:19.141Z,18.99
2018-06-10T01:25:19.296Z,18.86
2018-06-10T01:26:19.453Z,18.99
2018-06-10T01:27:19.610Z,18.97
2018-06-10T01:28:19.765Z,18.91
2018-06-10T01:29:19.924Z,18.86
2018-06-10T01:30:20.080Z,18.83
2018-06-10T01:31:20.237Z,18.84
2018-06-10T01:32:20.390Z,18.80
2018-06-10T01:33:20.546Z,18.92
2018-06-10T01:34:20.702Z,18.84
2018-06-10T01:35:20.855Z,19.02
2018-06-10T01:36:21.016Z,19.02
2018-06-10T01:37:21.170Z,19.08
2018-06-10T01:38:21.327Z,19.01
2018-06-10T01:39:21.482Z,19.01
2018-06-10T01:40:21.639Z,19.01
2018-06-10T01:41:21.794Z,19.08
2018-06-10T01:42:21.950Z,19.08
2018-06-10T01:43:22.098Z,19.08
2018-06-10T01:44:22.255Z,18.95
2018-06-10T01:45:22.409Z,18.99
2018-06-10T01:46:22.564Z,18.94
2018-06-10T01:47:22.720Z,18.99
2018-06-10T01:48:22.874Z,18.98
2018-06-10T01:49:23.029Z,18.94
2018-06-10T01:50:23.186Z,19.02
2018-06-10T01:51:23.343Z,18.99
2018-06-10T01:52:23.499Z,19.14
2018-06-10T01:53:23.653Z,19.10
2018-06-10T01:54:23.808Z,19.15
2018-06-10T01:55:23.964Z,19.11
2018-06-10T01:56:24.123Z,19.18
2018-06-10T01:57:24.277Z,19.24
2018-06-10T01:58:24.434Z,19.28
2018-06-10T01:59:24.590Z,19.21
2018-06-10T02:00:24.747Z,19.23
2018-06-10T02:01:24.903Z,19.21
2018-06-10T02:02:25.058Z,19.31
2018-06-10T02:03:25.215Z,19.29
2018-06-10T02:04:25.366Z,19.28
2018-06-10T02:05:25.525Z,19.39
2018-06-10T02:06:25.679Z,19.32
2018-06-10T02:07:25.837Z,19.15
2018-06-10T02:08:25.992Z,19.25
2018-06-10T02:09:26.148Z,19.14
2018-06-10T02:10:26.303Z,19.13
2018-06-10T02:11:26.461Z,19.02
2018-06-10T02:12:26.615Z,19.15
2018-06-10T02:13:26.772Z,18.98
2018-06-10T02:14:26.926Z,19.02
2018-06-10T02:15:27.080Z,18.98
2018-06-10T02:16:27.236Z,19.05
2018-06-10T02:17:27.391Z,18.95
2018-06-10T02:18:27.547Z,19.05
2018-06-10T02:19:27.702Z,19.11
2018-06-10T02:20:27.858Z,19.14
2018-06-10T02:21:28.013Z,19.10
2018-06-10T02:22:28.170Z,19.11
2018-06-10T02:23:28.323Z,19.06
2018-06-10T02:24:28.478Z,19.10
2018-06-10T02:25:28.634Z,19.10
2018-06-10T02:26:28.801Z,18.99
2018-06-10T02:27:28.935Z,18.99
2018-06-10T02:28:29.090Z,18.87
2018-06-10T02:29:29.245Z,18.94
2018-06-10T02:30:29.398Z,18.83
2018-06-10T02:31:29.564Z,19.02
2018-06-10T02:32:29.712Z,18.99
2018-06-10T02:33:29.867Z,19.02
2018-06-10T02:34:30.026Z,19.06
2018-06-10T02:35:30.178Z,19.10
2018-06-10T02:36:30.332Z,18.97
2018-06-10T02:37:30.490Z,18.94
2018-06-10T02:38:30.643Z,19.02
2018-06-10T02:39:30.798Z,18.99
2018-06-10T02:40:30.952Z,18.99
2018-06-10T02:41:31.111Z,19.02
2018-06-10T02:42:31.266Z,18.98
2018-06-10T02:43:31.420Z,19.10
2018-06-10T02:44:31.576Z,19.10
2018-06-10T02:45:31.733Z,19.01
2018-06-10T02:46:31.888Z,19.11
2018-06-10T02:47:32.044Z,19.11
2018-06-10T02:48:32.199Z,19.15
2018-06-10T02:49:32.353Z,19.10
2018-06-10T02:50:32.510Z,19.13
2018-06-10T02:51:32.666Z,19.02
2018-06-10T02:52:32.822Z,19.08
2018-06-10T02:53:32.977Z,18.98
2018-06-10T02:54:33.136Z,19.10
2018-06-10T02:55:33.288Z,18.97
2018-06-10T02:56:33.446Z,18.99
2018-06-10T02:57:33.603Z,19.02
2018-06-10T02:58:33.759Z,19.01
2018-06-10T02:59:33.915Z,18.99
2018-06-10T03:00:34.069Z,19.06
2018-06-10T03:01:34.227Z,19.05
2018-06-10T03:02:34.384Z,18.98
2018-06-10T03:03:34.537Z,19.08
2018-06-10T03:04:34.694Z,19.02
2018-06-10T03:05:34.847Z,19.06
2018-06-10T03:06:35.002Z,19.10
2018-06-10T03:07:35.161Z,18.98
2018-06-10T03:08:35.345Z,18.98
2018-06-10T03:09:35.474Z,18.84
2018-06-10T03:10:35.627Z,18.95
2018-06-10T03:11:35.784Z,18.91
2018-06-10T03:12:35.941Z,19.06
2018-06-10T03:13:36.096Z,19.01
2018-06-10T03:14:36.251Z,19.14
2018-06-10T03:15:36.405Z,19.05
2018-06-10T03:16:36.563Z,18.99
2018-06-10T03:17:36.717Z,18.99
2018-06-10T03:18:36.876Z,18.92
2018-06-10T03:19:37.030Z,19.01
2018-06-10T03:20:37.184Z,19.05
2018-06-10T03:21:37.342Z,18.95
2018-06-10T03:22:37.498Z,19.02
2018-06-10T03:23:37.656Z,18.95
2018-06-10T03:24:37.811Z,18.99
2018-06-10T03:25:37.966Z,18.99
2018-06-10T03:26:38.155Z,19.06
2018-06-10T03:27:38.279Z,19.05
2018-06-10T03:28:38.435Z,19.15
2018-06-10T03:29:38.592Z,19.10
2018-06-10T03:30:38.748Z,19.08
2018-06-10T03:31:38.902Z,19.11
2018-06-10T03:32:39.058Z,19.02
2018-06-10T03:33:39.213Z,19.05
2018-06-10T03:34:39.395Z,18.95
2018-06-10T03:35:39.522Z,18.95
2018-06-10T03:36:39.675Z,18.98
2018-06-10T03:37:39.830Z,18.90
2018-06-10T03:38:39.987Z,19.11
2018-06-10T03:39:40.144Z,19.06
2018-06-10T03:40:40.298Z,19.13
2018-06-10T03:41:40.456Z,19.08
2018-06-10T03:42:40.613Z,19.14
2018-06-10T03:43:40.769Z,19.14
2018-06-10T03:44:40.923Z,19.23
2018-06-10T03:45:41.080Z,19.06
2018-06-10T03:46:41.238Z,19.14
2018-06-10T03:47:41.393Z,18.99
2018-06-10T03:48:41.549Z,19.08
2018-06-10T03:49:41.705Z,18.98
2018-06-10T03:50:41.861Z,18.98
2018-06-10T03:51:42.017Z,19.14
2018-06-10T03:52:42.174Z,19.10
2018-06-10T03:53:42.330Z,19.13
2018-06-10T03:54:42.485Z,19.15
2018-06-10T03:55:42.641Z,19.10
2018-06-10T03:56:42.796Z,19.02
2018-06-10T03:57:42.950Z,19.11
2018-06-10T03:58:43.109Z,19.17
2018-06-10T03:59:43.262Z,19.14
2018-06-10T04:00:43.420Z,19.13
2018-06-10T04:01:43.575Z,19.13
2018-06-10T04:02:43.731Z,19.14
2018-06-10T04:03:43.886Z,19.15
2018-06-10T04:04:44.044Z,18.98
2018-06-10T04:05:44.199Z,18.87
2018-06-10T04:06:44.354Z,18.90
2018-06-10T04:07:44.511Z,18.97
2018-06-10T04:08:44.667Z,18.99
2018-06-10T04:09:44.822Z,18.99
2018-06-10T04:10:44.980Z,19.02
2018-06-10T04:11:45.135Z,19.01
2018-06-10T04:12:45.291Z,19.02
2018-06-10T04:13:45.446Z,19.10
2018-06-10T04:14:45.603Z,19.01
2018-06-10T04:15:45.760Z,18.92
2018-06-10T04:16:45.913Z,18.97
2018-06-10T04:17:46.077Z,19.06
2018-06-10T04:18:46.226Z,19.13
2018-06-10T04:19:46.382Z,19.14
2018-06-10T04:20:46.538Z,19.13
2018-06-10T04:21:46.697Z,19.10
2018-06-10T04:22:46.855Z,19.06
2018-06-10T04:23:47.010Z,19.15
2018-06-10T04:24:47.168Z,19.11
2018-06-10T04:25:47.326Z,18.98
2018-06-10T04:26:47.480Z,19.14
2018-06-10T04:27:47.640Z,19.02
2018-06-10T04:28:47.792Z,19.10
2018-06-10T04:29:47.949Z,19.15
2018-06-10T04:30:48.106Z,19.15
2018-06-10T04:31:48.262Z,19.20
2018-06-10T04:32:48.419Z,19.23
2018-06-10T04:33:48.574Z,19.17
2018-06-10T04:34:48.732Z,19.17
2018-06-10T04:35:48.888Z,19.25
2018-06-10T04:36:49.044Z,19.25
2018-06-10T04:37:49.203Z,19.24
2018-06-10T04:38:49.356Z,19.25
2018-06-10T04:39:49.510Z,19.35
2018-06-10T04:40:49.667Z,19.38
2018-06-10T04:41:49.824Z,19.38
2018-06-10T04:42:49.980Z,19.40
2018-06-10T04:43:50.138Z,19.40
2018-06-10T04:44:50.292Z,19.47
2018-06-10T04:45:50.449Z,19.43
2018-06-10T04:46:50.602Z,19.47
2018-06-10T04:47:50.760Z,19.31
2018-06-10T04:48:50.917Z,19.25
2018-06-10T04:49:51.073Z,19.38
2018-06-10T04:50:51.231Z,19.43
2018-06-10T04:51:51.388Z,19.39
2018-06-10T04:52:51.544Z,19.31
2018-06-10T04:53:51.700Z,19.35
2018-06-10T04:54:51.857Z,19.36
2018-06-10T04:55:52.016Z,19.28
2018-06-10T04:56:52.172Z,19.33
2018-06-10T04:57:52.328Z,19.33
2018-06-10T04:58:52.483Z,19.39
2018-06-10T04:59:52.641Z,19.25
2018-06-10T05:00:52.796Z,19.35
2018-06-10T05:01:52.952Z,19.35
2018-06-10T05:02:53.111Z,19.48
2018-06-10T05:03:53.265Z,19.48
2018-06-10T05:04:53.421Z,19.40
2018-06-10T05:05:53.580Z,19.46
2018-06-10T05:06:53.738Z,19.61
2018-06-10T05:07:53.895Z,19.66
2018-06-10T05:08:54.051Z,19.70
2018-06-10T05:09:54.207Z,19.65
2018-06-10T05:10:54.364Z,19.78
2018-06-10T05:11:54.522Z,19.75
2018-06-10T05:12:54.679Z,19.88
2018-06-10T05:13:54.836Z,19.76
2018-06-10T05:14:54.992Z,19.90
2018-06-10T05:15:55.150Z,19.79
2018-06-10T05:16:55.306Z,19.83
2018-06-10T05:17:55.470Z,19.78
2018-06-10T05:18:55.623Z,19.80
2018-06-10T05:19:55.833Z,19.86
2018-06-10T05:20:55.940Z,19.75
2018-06-10T05:21:56.099Z,19.79
2018-06-10T05:22:56.255Z,19.79
2018-06-10T05:23:56.413Z,19.70
2018-06-10T05:24:56.570Z,19.57
2018-06-10T05:25:56.730Z,19.65
2018-06-10T05:26:56.882Z,19.58
2018-06-10T05:27:57.043Z,19.65
2018-06-10T05:28:57.198Z,19.76
2018-06-10T05:29:57.353Z,19.69
2018-06-10T05:30:57.512Z,19.70
2018-06-10T05:31:57.669Z,19.66
2018-06-10T05:32:57.825Z,19.48
2018-06-10T05:33:57.984Z,19.36
2018-06-10T05:34:58.138Z,19.33
2018-06-10T05:35:58.299Z,19.33
2018-06-10T05:36:58.455Z,19.32
2018-06-10T05:37:58.609Z,19.36
2018-06-10T05:38:58.771Z,19.47
2018-06-10T05:39:58.925Z,19.53
2018-06-10T05:40:59.081Z,19.32
2018-06-10T05:41:59.236Z,19.42
2018-06-10T05:42:59.392Z,19.38
2018-06-10T05:43:59.549Z,19.55
2018-06-10T05:44:59.704Z,19.28
2018-06-10T05:45:59.860Z,19.25
2018-06-10T05:47:00.017Z,19.23
2018-06-10T05:48:00.173Z,19.38
2018-06-10T05:49:00.326Z,19.42
2018-06-10T05:50:00.482Z,19.29
2018-06-10T05:51:00.641Z,19.18
2018-06-10T05:52:00.796Z,19.28
2018-06-10T05:53:00.952Z,19.23
2018-06-10T05:54:01.110Z,19.21
2018-06-10T05:55:01.264Z,19.23
2018-06-10T05:56:01.427Z,19.29
2018-06-10T05:57:01.580Z,19.35
2018-06-10T05:58:01.738Z,19.38
2018-06-10T05:59:01.893Z,19.42
2018-06-10T06:00:02.051Z,19.42
2018-06-10T06:01:02.207Z,19.36
2018-06-10T06:02:02.362Z,19.28
2018-06-10T06:03:02.520Z,19.23
2018-06-10T06:04:02.674Z,19.35
2018-06-10T06:05:02.829Z,19.40
2018-06-10T06:06:02.987Z,19.47
2018-06-10T06:07:03.143Z,19.39
2018-06-10T06:08:03.303Z,19.50
2018-06-10T06:09:03.458Z,19.54
2018-06-10T06:10:03.613Z,19.58
2018-06-10T06:11:03.768Z,19.61
2018-06-10T06:12:03.923Z,19.61
2018-06-10T06:13:04.078Z,19.66
2018-06-10T06:14:04.236Z,19.60
2018-06-10T06:15:04.394Z,19.75
2018-06-10T06:16:04.548Z,19.75
2018-06-10T06:17:04.707Z,19.87
2018-06-10T06:18:04.862Z,19.87
2018-06-10T06:19:05.019Z,19.80
2018-06-10T06:20:05.180Z,19.69
2018-06-10T06:21:05.338Z,19.75
2018-06-10T06:22:05.496Z,19.69
2018-06-10T06:23:05.655Z,19.78
2018-06-10T06:24:05.808Z,19.76
2018-06-10T06:25:05.967Z,19.91
2018-06-10T06:26:06.122Z,19.90
2018-06-10T06:27:06.278Z,19.86
2018-06-10T06:28:06.436Z,19.94
2018-06-10T06:29:06.593Z,20.00
2018-06-10T06:30:06.750Z,20.06
2018-06-10T06:31:06.904Z,20.20
2018-06-10T06:32:07.062Z,20.09
2018-06-10T06:33:07.218Z,20.15
2018-06-10T06:34:07.377Z,20.13
2018-06-10T06:35:07.535Z,20.16
2018-06-10T06:36:07.691Z,20.13
2018-06-10T06:37:07.845Z,20.18
2018-06-10T06:38:08.002Z,20.25
2018-06-10T06:39:08.163Z,20.09
2018-06-10T06:40:08.318Z,20.06
2018-06-10T06:41:08.471Z,20.02
2018-06-10T06:42:08.629Z,20.12
2018-06-10T06:43:08.786Z,20.08
2018-06-10T06:44:08.944Z,20.13
2018-06-10T06:45:09.098Z,20.16
2018-06-10T06:46:09.256Z,20.21
2018-06-10T06:47:09.434Z,20.25
2018-06-10T06:48:09.607Z,20.30
2018-06-10T06:49:09.765Z,20.34
2018-06-10T06:50:09.923Z,20.34
2018-06-10T06:51:10.080Z,20.25
2018-06-10T06:52:10.235Z,20.34
2018-06-10T06:53:10.396Z,20.49
2018-06-10T06:54:10.548Z,20.41
2018-06-10T06:55:10.707Z,20.49
2018-06-10T06:56:10.862Z,20.56
2018-06-10T06:57:11.021Z,20.59
2018-06-10T06:58:11.177Z,20.61
2018-06-10T06:59:11.335Z,20.64
2018-06-10T07:00:11.495Z,20.72
2018-06-10T07:01:11.650Z,20.65
2018-06-10T07:02:11.807Z,20.74
2018-06-10T07:03:11.966Z,20.86
2018-06-10T07:04:12.178Z,20.83
2018-06-10T07:05:12.286Z,20.79
2018-06-10T07:06:12.443Z,20.79
2018-06-10T07:07:12.602Z,20.95
2018-06-10T07:08:12.758Z,21.08
2018-06-10T07:09:12.916Z,21.19
2018-06-10T07:10:13.073Z,21.34
2018-06-10T07:11:13.231Z,21.20
2018-06-10T07:12:13.411Z,21.09
2018-06-10T07:13:13.569Z,21.05
2018-06-10T07:14:13.728Z,21.11
2018-06-10T07:15:13.889Z,21.19
2018-06-10T07:16:14.053Z,21.23
2018-06-10T07:17:14.210Z,21.16
2018-06-10T07:18:14.372Z,21.16
2018-06-10T07:19:14.527Z,21.20
2018-06-10T07:20:14.689Z,21.19
2018-06-10T07:21:14.854Z,21.48
2018-06-10T07:22:15.006Z,21.72
2018-06-10T07:23:15.167Z,21.71
2018-06-10T07:24:15.329Z,21.78
2018-06-10T07:25:15.484Z,21.76
2018-06-10T07:26:15.644Z,21.88
2018-06-10T07:27:15.801Z,21.88
2018-06-10T07:28:15.960Z,21.83
2018-06-10T07:29:16.118Z,21.95
2018-06-10T07:30:16.276Z,21.82
2018-06-10T07:31:16.436Z,21.76
2018-06-10T07:32:16.594Z,21.53
2018-06-10T07:33:16.753Z,21.54
2018-06-10T07:34:16.911Z,21.64
2018-06-10T07:35:17.074Z,21.60
2018-06-10T07:36:17.231Z,21.74
2018-06-10T07:37:17.393Z,21.78
2018-06-10T07:38:17.549Z,21.81
2018-06-10T07:39:17.710Z,21.95
2018-06-10T07:40:17.880Z,21.99
2018-06-10T07:41:18.030Z,22.12
2018-06-10T07:42:18.253Z,22.10
2018-06-10T07:43:18.341Z,22.20
2018-06-10T07:44:18.501Z,22.41
2018-06-10T07:45:18.661Z,22.53
2018-06-10T07:46:18.821Z,22.68
2018-06-10T07:47:18.983Z,22.75
2018-06-10T07:48:19.148Z,22.53
2018-06-10T07:49:19.298Z,22.67
2018-06-10T07:50:19.456Z,22.86
2018-06-10T07:51:19.615Z,22.47
2018-06-10T07:52:19.772Z,22.62
2018-06-10T07:53:19.931Z,22.74
2018-06-10T07:54:20.090Z,22.56
2018-06-10T07:55:20.250Z,22.54
2018-06-10T07:56:20.409Z,22.69
2018-06-10T07:57:20.569Z,22.86
2018-06-10T07:58:20.727Z,22.82
2018-06-10T07:59:20.893Z,22.82
2018-06-10T08:00:21.044Z,22.96
2018-06-10T08:01:21.211Z,22.80
2018-06-10T08:02:21.363Z,22.93
2018-06-10T08:03:21.522Z,22.86
2018-06-10T08:04:21.680Z,23.01
2018-06-10T08:05:21.875Z,23.15
2018-06-10T08:06:21.997Z,23.07
2018-06-10T08:07:22.155Z,23.14
2018-06-10T08:08:22.316Z,22.80
2018-06-10T08:09:22.474Z,22.52
2018-06-10T08:10:22.633Z,22.57
2018-06-10T08:11:22.792Z,22.46
2018-06-10T08:12:22.953Z,22.31
2018-06-10T08:13:23.114Z,22.38
2018-06-10T08:14:23.273Z,22.27
2018-06-10T08:15:23.435Z,22.22
2018-06-10T08:16:23.592Z,22.19
2018-06-10T08:17:23.754Z,21.94
2018-06-10T08:18:23.913Z,21.95
2018-06-10T08:19:24.072Z,21.98
2018-06-10T08:20:24.231Z,21.99
2018-06-10T08:21:24.391Z,22.10
2018-06-10T08:22:24.551Z,21.98
2018-06-10T08:23:24.717Z,21.83
2018-06-10T08:24:24.872Z,21.92
2018-06-10T08:25:25.038Z,21.85
2018-06-10T08:26:25.200Z,21.82
2018-06-10T08:27:25.352Z,21.75
2018-06-10T08:28:25.510Z,21.78
2018-06-10T08:29:25.671Z,21.74
2018-06-10T08:30:25.828Z,21.66
2018-06-10T08:31:25.987Z,21.76
2018-06-10T08:32:26.144Z,21.85
2018-06-10T08:33:26.304Z,21.76
2018-06-10T08:34:26.462Z,21.74
2018-06-10T08:35:26.622Z,21.82
2018-06-10T08:36:26.780Z,21.92
2018-06-10T08:37:26.965Z,21.88
2018-06-10T08:38:27.099Z,21.97
2018-06-10T08:39:27.261Z,21.83
2018-06-10T08:40:27.449Z,21.74
2018-06-10T08:41:27.576Z,21.67
2018-06-10T08:42:27.736Z,21.75
2018-06-10T08:43:27.896Z,21.72
2018-06-10T08:44:28.054Z,21.88
2018-06-10T08:45:28.213Z,21.83
2018-06-10T08:46:28.372Z,21.85
2018-06-10T08:47:28.532Z,22.09
2018-06-10T08:48:28.755Z,21.98
2018-06-10T08:49:28.792Z,21.85
2018-06-10T08:50:29.005Z,21.78
2018-06-10T08:51:29.110Z,21.88
2018-06-10T08:52:29.271Z,21.83
2018-06-10T08:53:29.431Z,21.91
2018-06-10T08:54:29.589Z,21.79
2018-06-10T08:55:29.748Z,21.95
2018-06-10T08:56:29.906Z,21.97
2018-06-10T08:57:30.065Z,21.97
2018-06-10T08:58:30.226Z,22.02
2018-06-10T08:59:30.387Z,22.09
2018-06-10T09:00:30.552Z,22.17
2018-06-10T09:01:30.713Z,22.23
2018-06-10T09:02:30.870Z,22.25
2018-06-10T09:03:31.030Z,22.16
2018-06-10T09:04:31.189Z,22.39
2018-06-10T09:05:31.349Z,22.53
2018-06-10T09:06:31.511Z,22.41
2018-06-10T09:07:31.670Z,22.62
2018-06-10T09:08:31.885Z,22.65
2018-06-10T09:09:31.980Z,22.68
2018-06-10T09:10:32.144Z,22.69
2018-06-10T09:11:32.303Z,22.57
2018-06-10T09:12:32.462Z,22.72
2018-06-10T09:13:32.628Z,22.93
2018-06-10T09:14:32.787Z,23.17
2018-06-10T09:15:32.946Z,23.34
2018-06-10T09:16:33.111Z,23.42
2018-06-10T09:17:33.271Z,23.53
2018-06-10T09:18:33.432Z,23.52
2018-06-10T09:19:33.598Z,23.52
2018-06-10T09:20:33.759Z,23.31
2018-06-10T09:21:33.921Z,23.32
2018-06-10T09:22:34.085Z,23.39
2018-06-10T09:23:34.244Z,23.43
2018-06-10T09:24:34.409Z,23.62
2018-06-10T09:25:34.567Z,23.77
2018-06-10T09:26:34.727Z,23.90
2018-06-10T09:27:34.891Z,23.79
2018-06-10T09:28:35.058Z,23.85
2018-06-10T09:29:35.224Z,24.05
2018-06-10T09:30:35.413Z,24.13
2018-06-10T09:31:35.582Z,23.89
2018-06-10T09:32:35.740Z,24.01
2018-06-10T09:33:35.901Z,24.20
2018-06-10T09:34:36.060Z,23.70
2018-06-10T09:35:36.225Z,23.83
2018-06-10T09:36:36.387Z,23.94
2018-06-10T09:37:36.550Z,24.04
2018-06-10T09:38:36.709Z,23.79
2018-06-10T09:39:36.872Z,23.76
2018-06-10T09:40:37.036Z,23.77
2018-06-10T09:41:37.194Z,23.77
2018-06-10T09:42:37.357Z,24.00
2018-06-10T09:43:37.519Z,24.19
2018-06-10T09:44:37.680Z,24.34
2018-06-10T09:45:37.840Z,24.10
2018-06-10T09:46:38.000Z,24.13
2018-06-10T09:47:38.163Z,23.95
2018-06-10T09:48:38.325Z,24.02
2018-06-10T09:49:38.489Z,23.95
2018-06-10T09:50:38.707Z,24.05
2018-06-10T09:51:38.762Z,24.02
2018-06-10T09:52:38.929Z,23.92
2018-06-10T09:53:39.089Z,24.13
2018-06-10T09:54:39.250Z,24.29
2018-06-10T09:55:39.466Z,24.34
2018-06-10T09:56:39.574Z,24.44
2018-06-10T09:57:39.782Z,24.45
2018-06-10T09:58:39.948Z,24.17
2018-06-10T09:59:40.120Z,24.29
2018-06-10T10:00:40.278Z,24.16
2018-06-10T10:01:40.442Z,24.07
2018-06-10T10:02:40.607Z,24.31
2018-06-10T10:03:40.770Z,24.80
2018-06-10T10:04:40.937Z,25.17
2018-06-10T10:05:41.103Z,25.07
2018-06-10T10:06:41.277Z,25.20
2018-06-10T10:07:41.438Z,25.31
2018-06-10T10:08:41.606Z,25.16
2018-06-10T10:09:41.770Z,25.39
2018-06-10T10:10:41.933Z,25.84
2018-06-10T10:11:42.097Z,26.08
2018-06-10T10:12:42.261Z,26.08
2018-06-10T10:13:42.424Z,26.20
2018-06-10T10:14:42.620Z,26.52
2018-06-10T10:15:42.748Z,26.74
2018-06-10T10:16:42.917Z,26.84
2018-06-10T10:17:43.074Z,26.91
2018-06-10T10:18:43.237Z,27.05
2018-06-10T10:19:43.402Z,27.13
2018-06-10T10:20:43.567Z,26.98
2018-06-10T10:21:43.731Z,26.92
2018-06-10T10:22:43.893Z,26.99
2018-06-10T10:23:44.067Z,26.47
2018-06-10T10:24:44.222Z,26.52
2018-06-10T10:25:44.386Z,26.04
2018-06-10T10:26:44.568Z,25.93
2018-06-10T10:27:44.732Z,25.86
2018-06-10T10:28:44.897Z,25.71
2018-06-10T10:29:45.062Z,25.99
2018-06-10T10:30:45.225Z,25.77
2018-06-10T10:31:45.391Z,25.91
2018-06-10T10:32:45.553Z,25.50
2018-06-10T10:33:45.723Z,25.19
2018-06-10T10:34:45.907Z,25.32
2018-06-10T10:35:46.074Z,24.95
2018-06-10T10:36:46.240Z,24.92
2018-06-10T10:37:46.404Z,24.45
2018-06-10T10:38:46.572Z,24.91
2018-06-10T10:39:46.734Z,25.00
2018-06-10T10:40:46.899Z,25.44
2018-06-10T10:41:47.064Z,25.56
2018-06-10T10:42:47.231Z,25.82
2018-06-10T10:43:47.398Z,25.86
2018-06-10T10:44:47.560Z,26.01
2018-06-10T10:45:47.723Z,25.94
2018-06-10T10:46:47.936Z,25.74
2018-06-10T10:47:48.064Z,25.86
2018-06-10T10:48:48.227Z,26.01
2018-06-10T10:49:48.399Z,25.72
2018-06-10T10:50:48.556Z,25.75
2018-06-10T10:51:48.722Z,25.69
2018-06-10T10:52:48.889Z,25.74
2018-06-10T10:53:49.055Z,26.05
2018-06-10T10:54:49.218Z,26.08
2018-06-10T10:55:49.378Z,26.27
2018-06-10T10:56:49.539Z,26.61
2018-06-10T10:57:49.770Z,26.64
2018-06-10T10:58:49.815Z,26.80
2018-06-10T10:59:49.977Z,26.72
2018-06-10T11:00:50.140Z,26.94
2018-06-10T11:01:50.336Z,26.99
2018-06-10T11:02:50.468Z,27.09
2018-06-10T11:03:50.636Z,27.20
2018-06-10T11:04:50.813Z,27.53
2018-06-10T11:05:50.979Z,27.79
2018-06-10T11:06:51.142Z,27.96
2018-06-10T11:07:51.309Z,28.01
2018-06-10T11:08:51.475Z,28.06
2018-06-10T11:09:51.638Z,28.41
2018-06-10T11:10:51.801Z,28.44
2018-06-10T11:11:51.965Z,28.04
2018-06-10T11:12:52.129Z,27.35
2018-06-10T11:13:52.296Z,27.80
2018-06-10T11:14:52.468Z,27.53
2018-06-10T11:15:52.629Z,27.46
2018-06-10T11:16:52.795Z,27.13
2018-06-10T11:17:52.960Z,26.72
2018-06-10T11:18:53.121Z,26.62
2018-06-10T11:19:53.288Z,26.17
2018-06-10T11:20:53.456Z,25.97
2018-06-10T11:21:53.611Z,26.09
2018-06-10T11:22:53.776Z,26.29
2018-06-10T11:23:53.942Z,26.40
2018-06-10T11:24:54.105Z,26.65
2018-06-10T11:25:54.276Z,26.35
2018-06-10T11:26:54.437Z,26.15
2018-06-10T11:27:54.601Z,25.61
2018-06-10T11:28:54.766Z,25.72
2018-06-10T11:29:54.928Z,25.99
2018-06-10T11:30:55.100Z,25.86
2018-06-10T11:31:55.259Z,25.99
2018-06-10T11:32:55.425Z,25.97
2018-06-10T11:33:55.616Z,25.82
2018-06-10T11:34:55.782Z,25.89
2018-06-10T11:35:55.945Z,26.21
2018-06-10T11:36:56.110Z,26.04
2018-06-10T11:37:56.273Z,26.18
2018-06-10T11:38:56.438Z,26.27
2018-06-10T11:39:56.605Z,26.52
2018-06-10T11:40:56.768Z,26.74
2018-06-10T11:41:56.935Z,26.62
2018-06-10T11:42:57.099Z,26.67
2018-06-10T11:43:57.263Z,26.83
2018-06-10T11:44:57.429Z,26.79
2018-06-10T11:45:57.597Z,26.68
2018-06-10T11:46:57.756Z,26.95
2018-06-10T11:47:57.921Z,26.94
2018-06-10T11:48:58.084Z,26.91
2018-06-10T11:49:58.247Z,26.99
2018-06-10T11:50:58.427Z,26.64
2018-06-10T11:51:58.645Z,26.74
2018-06-10T11:52:58.759Z,26.36
2018-06-10T11:53:58.918Z,26.61
2018-06-10T11:54:59.083Z,26.25
2018-06-10T11:55:59.257Z,26.24
2018-06-10T11:56:59.421Z,26.84
2018-06-10T11:57:59.599Z,27.16
2018-06-10T11:58:59.749Z,27.26
2018-06-10T11:59:59.929Z,27.14
2018-06-10T12:01:00.100Z,27.23
2018-06-10T12:02:00.341Z,27.41
2018-06-10T12:03:00.433Z,27.23
2018-06-10T12:04:00.600Z,27.19
2018-06-10T12:05:00.769Z,27.41
2018-06-10T12:06:00.933Z,27.50
2018-06-10T12:07:01.098Z,27.39
2018-06-10T12:08:01.262Z,27.41
2018-06-10T12:09:01.429Z,27.06
2018-06-10T12:10:01.593Z,26.72
2018-06-10T12:11:01.761Z,26.64
2018-06-10T12:12:01.922Z,26.94
2018-06-10T12:13:02.089Z,26.91
2018-06-10T12:14:02.254Z,27.13
2018-06-10T12:15:02.416Z,27.19
2018-06-10T12:16:02.581Z,27.01
2018-06-10T12:17:02.744Z,27.13
2018-06-10T12:18:02.911Z,27.04
2018-06-10T12:19:03.079Z,26.95
2018-06-10T12:20:03.243Z,27.17
2018-06-10T12:21:03.409Z,27.43
2018-06-10T12:22:03.572Z,27.62
2018-06-10T12:23:03.736Z,27.99
2018-06-10T12:24:03.900Z,27.86
2018-06-10T12:25:04.066Z,27.85
2018-06-10T12:26:04.227Z,27.50
2018-06-10T12:27:04.412Z,27.51
2018-06-10T12:28:04.573Z,27.58
2018-06-10T12:29:07.313Z,27.67
2018-06-10T12:30:04.856Z,27.48
2018-06-10T12:31:05.029Z,27.39
2018-06-10T12:32:05.203Z,27.61
2018-06-10T12:33:05.365Z,27.47
2018-06-10T12:34:05.623Z,27.46
2018-06-10T12:35:05.672Z,27.43
2018-06-10T12:36:05.839Z,27.62
2018-06-10T12:37:06.005Z,27.51
2018-06-10T12:38:06.203Z,27.42
2018-06-10T12:39:06.391Z,27.71
2018-06-10T12:40:06.632Z,27.99
2018-06-10T12:41:06.677Z,27.98
2018-06-10T12:42:06.873Z,27.80
2018-06-10T12:43:07.040Z,28.07
2018-06-10T12:44:07.203Z,28.46
2018-06-10T12:45:07.367Z,28.36
2018-06-10T12:46:07.533Z,28.59
2018-06-10T12:47:07.705Z,28.46
2018-06-10T12:48:07.893Z,28.70
2018-06-10T12:49:08.086Z,28.97
2018-06-10T12:50:08.237Z,29.26
2018-06-10T12:51:08.402Z,28.82
2018-06-10T12:52:08.566Z,28.62
2018-06-10T12:53:08.730Z,28.68
2018-06-10T12:54:08.894Z,28.44